Purdon, Texas
Current Conditions -  °F | °C
As of 2:11 PM on Friday 21 Nov 2014 (Local Time) from KCRS Reporting Station
Overcast Overcast  
Wind Chill: 66°   Ceiling: 800
Heat Index: 66°   Visibility: 10mi
Dew Point: 61°   Wind: 10mph
Humidity: 84%   Direction: 150°SSE
Pressure: 30.07"   Gusts: NA
Location:  31.95°N, 96.62°W
Report Text: KCRS 212011Z AUTO 15009KT 10SM OVC008 19/16 A3007 RMK AO2 T01890161
Loading
Personal Weather Stations






























Interactive Weather Map New forecast layout! Learn more

10-Day Weather Forecast

Advertisements
Track Severe Weather on mobile